sensor_id;sensor_type;location;lat;lon;timestamp;temperature;humidity
11055;DHT22;5580;50.106;8.702;2023-12-29T00:01:21;10.80;99.90
11055;DHT22;5580;50.106;8.702;2023-12-29T00:03:47;10.80;99.90
11055;DHT22;5580;50.106;8.702;2023-12-29T00:06:12;10.80;99.90
11055;DHT22;5580;50.106;8.702;2023-12-29T00:08:38;10.80;99.90
11055;DHT22;5580;50.106;8.702;2023-12-29T00:11:03;10.80;99.90
11055;DHT22;5580;50.106;8.702;2023-12-29T00:13:30;10.70;99.90
11055;DHT22;5580;50.106;8.702;2023-12-29T00:15:55;10.70;99.90
11055;DHT22;5580;50.106;8.702;2023-12-29T00:18:21;10.70;99.90
11055;DHT22;5580;50.106;8.702;2023-12-29T00:20:47;10.60;99.90
11055;DHT22;5580;50.106;8.702;2023-12-29T00:23:13;10.60;99.90
11055;DHT22;5580;50.106;8.702;2023-12-29T00:25:39;10.70;99.90
11055;DHT22;5580;50.106;8.702;2023-12-29T00:28:05;10.60;99.90
11055;DHT22;5580;50.106;8.702;2023-12-29T00:30:31;10.60;99.90
11055;DHT22;5580;50.106;8.702;2023-12-29T00:32:57;10.60;99.90
11055;DHT22;5580;50.106;8.702;2023-12-29T00:35:22;10.70;99.90
11055;DHT22;5580;50.106;8.702;2023-12-29T00:37:50;10.60;99.90
11055;DHT22;5580;50.106;8.702;2023-12-29T00:40:15;10.60;99.90
11055;DHT22;5580;50.106;8.702;2023-12-29T00:42:41;10.60;99.90
11055;DHT22;5580;50.106;8.702;2023-12-29T00:45:07;10.60;99.90
11055;DHT22;5580;50.106;8.702;2023-12-29T00:47:33;10.60;99.90
11055;DHT22;5580;50.106;8.702;2023-12-29T00:50:00;10.60;99.90
11055;DHT22;5580;50.106;8.702;2023-12-29T00:52:25;10.50;99.90
11055;DHT22;5580;50.106;8.702;2023-12-29T00:54:51;10.50;99.90
11055;DHT22;5580;50.106;8.702;2023-12-29T00:57:16;10.50;99.90
11055;DHT22;5580;50.106;8.702;2023-12-29T00:59:42;10.50;99.90
11055;DHT22;5580;50.106;8.702;2023-12-29T01:02:09;10.50;99.90
11055;DHT22;5580;50.106;8.702;2023-12-29T01:04:37;10.50;99.90
11055;DHT22;5580;50.106;8.702;2023-12-29T01:07:04;10.40;99.90
11055;DHT22;5580;50.106;8.702;2023-12-29T01:09:29;10.50;99.90
11055;DHT22;5580;50.106;8.702;2023-12-29T01:11:55;10.50;99.90
11055;DHT22;5580;50.106;8.702;2023-12-29T01:14:20;10.50;99.90
11055;DHT22;5580;50.106;8.702;2023-12-29T01:16:46;10.40;99.90
11055;DHT22;5580;50.106;8.702;2023-12-29T01:19:11;10.40;99.90
11055;DHT22;5580;50.106;8.702;2023-12-29T01:21:40;10.40;99.90
11055;DHT22;5580;50.106;8.702;2023-12-29T01:24:05;10.40;99.90
11055;DHT22;5580;50.106;8.702;2023-12-29T01:26:37;10.30;99.90
11055;DHT22;5580;50.106;8.702;2023-12-29T01:29:03;10.40;99.90
11055;DHT22;5580;50.106;8.702;2023-12-29T01:31:32;10.40;99.90
11055;DHT22;5580;50.106;8.702;2023-12-29T01:33:58;10.40;99.90
11055;DHT22;5580;50.106;8.702;2023-12-29T01:36:24;10.40;99.90
11055;DHT22;5580;50.106;8.702;2023-12-29T01:38:49;10.40;99.90
11055;DHT22;5580;50.106;8.702;2023-12-29T01:41:15;10.40;99.90
11055;DHT22;5580;50.106;8.702;2023-12-29T01:46:22;10.40;99.90
11055;DHT22;5580;50.106;8.702;2023-12-29T01:48:48;10.40;99.90
11055;DHT22;5580;50.106;8.702;2023-12-29T01:51:15;10.40;99.90
11055;DHT22;5580;50.106;8.702;2023-12-29T01:53:40;10.40;99.90
11055;DHT22;5580;50.106;8.702;2023-12-29T01:56:06;10.30;99.90
11055;DHT22;5580;50.106;8.702;2023-12-29T01:58:33;10.40;99.90
11055;DHT22;5580;50.106;8.702;2023-12-29T02:01:00;10.30;99.90
11055;DHT22;5580;50.106;8.702;2023-12-29T02:03:27;10.30;99.90
11055;DHT22;5580;50.106;8.702;2023-12-29T02:05:54;10.30;99.90
11055;DHT22;5580;50.106;8.702;2023-12-29T02:08:22;10.30;99.90
11055;DHT22;5580;50.106;8.702;2023-12-29T02:10:48;10.30;99.90
11055;DHT22;5580;50.106;8.702;2023-12-29T02:13:13;10.40;99.90
11055;DHT22;5580;50.106;8.702;2023-12-29T02:15:40;10.40;99.90
11055;DHT22;5580;50.106;8.702;2023-12-29T02:18:07;10.40;99.90
11055;DHT22;5580;50.106;8.702;2023-12-29T02:20:35;10.40;99.90
11055;DHT22;5580;50.106;8.702;2023-12-29T02:23:01;10.30;99.90
11055;DHT22;5580;50.106;8.702;2023-12-29T02:25:27;10.30;99.90
11055;DHT22;5580;50.106;8.702;2023-12-29T02:28:15;10.40;99.90
11055;DHT22;5580;50.106;8.702;2023-12-29T02:30:46;10.40;99.90
11055;DHT22;5580;50.106;8.702;2023-12-29T02:33:18;10.40;99.90
11055;DHT22;5580;50.106;8.702;2023-12-29T02:35:45;10.40;99.90
11055;DHT22;5580;50.106;8.702;2023-12-29T02:38:11;10.40;99.90
11055;DHT22;5580;50.106;8.702;2023-12-29T02:40:38;10.40;99.90
11055;DHT22;5580;50.106;8.702;2023-12-29T02:43:03;10.50;99.90
11055;DHT22;5580;50.106;8.702;2023-12-29T02:45:29;10.50;99.90
11055;DHT22;5580;50.106;8.702;2023-12-29T02:47:55;10.50;99.90
11055;DHT22;5580;50.106;8.702;2023-12-29T02:50:20;10.40;99.90
11055;DHT22;5580;50.106;8.702;2023-12-29T02:52:46;10.40;99.90
11055;DHT22;5580;50.106;8.702;2023-12-29T02:55:12;10.40;99.90
11055;DHT22;5580;50.106;8.702;2023-12-29T02:57:38;10.40;99.90
11055;DHT22;5580;50.106;8.702;2023-12-29T03:00:05;10.30;99.90
11055;DHT22;5580;50.106;8.702;2023-12-29T03:02:31;10.30;99.90
11055;DHT22;5580;50.106;8.702;2023-12-29T03:04:56;10.30;99.90
11055;DHT22;5580;50.106;8.702;2023-12-29T03:07:22;10.30;99.90
11055;DHT22;5580;50.106;8.702;2023-12-29T03:09:48;10.30;99.90
11055;DHT22;5580;50.106;8.702;2023-12-29T03:12:13;10.30;99.90
11055;DHT22;5580;50.106;8.702;2023-12-29T03:14:39;10.30;99.90
11055;DHT22;5580;50.106;8.702;2023-12-29T03:17:04;10.30;99.90
11055;DHT22;5580;50.106;8.702;2023-12-29T03:19:30;10.20;99.90
11055;DHT22;5580;50.106;8.702;2023-12-29T03:21:55;10.20;99.90
11055;DHT22;5580;50.106;8.702;2023-12-29T03:24:22;10.20;99.90
11055;DHT22;5580;50.106;8.702;2023-12-29T03:26:47;10.30;99.90
11055;DHT22;5580;50.106;8.702;2023-12-29T03:29:13;10.30;99.90
11055;DHT22;5580;50.106;8.702;2023-12-29T03:31:38;10.30;99.90
11055;DHT22;5580;50.106;8.702;2023-12-29T03:34:05;10.20;99.90
11055;DHT22;5580;50.106;8.702;2023-12-29T03:36:30;10.30;99.90
11055;DHT22;5580;50.106;8.702;2023-12-29T03:38:56;10.20;99.90
11055;DHT22;5580;50.106;8.702;2023-12-29T03:41:22;10.20;99.90
11055;DHT22;5580;50.106;8.702;2023-12-29T03:43:47;10.20;99.90
11055;DHT22;5580;50.106;8.702;2023-12-29T03:46:20;10.20;99.90
11055;DHT22;5580;50.106;8.702;2023-12-29T03:48:46;10.30;99.90
11055;DHT22;5580;50.106;8.702;2023-12-29T03:51:12;10.20;99.90
11055;DHT22;5580;50.106;8.702;2023-12-29T03:53:37;10.30;99.90
11055;DHT22;5580;50.106;8.702;2023-12-29T03:56:16;10.20;99.90
11055;DHT22;5580;50.106;8.702;2023-12-29T03:58:43;10.20;99.90
11055;DHT22;5580;50.106;8.702;2023-12-29T04:01:10;10.20;99.90
11055;DHT22;5580;50.106;8.702;2023-12-29T04:03:36;10.20;99.90
11055;DHT22;5580;50.106;8.702;2023-12-29T04:06:02;10.20;99.90
11055;DHT22;5580;50.106;8.702;2023-12-29T04:08:28;10.20;99.90
11055;DHT22;5580;50.106;8.702;2023-12-29T04:10:53;10.10;99.90
11055;DHT22;5580;50.106;8.702;2023-12-29T04:13:19;10.20;99.90
11055;DHT22;5580;50.106;8.702;2023-12-29T04:15:44;10.20;99.90
11055;DHT22;5580;50.106;8.702;2023-12-29T04:18:10;10.10;99.90
11055;DHT22;5580;50.106;8.702;2023-12-29T04:20:35;10.10;99.90
11055;DHT22;5580;50.106;8.702;2023-12-29T04:23:01;10.10;99.90
11055;DHT22;5580;50.106;8.702;2023-12-29T04:25:27;10.10;99.90
11055;DHT22;5580;50.106;8.702;2023-12-29T04:27:52;10.10;99.90
11055;DHT22;5580;50.106;8.702;2023-12-29T04:30:18;10.10;99.90
11055;DHT22;5580;50.106;8.702;2023-12-29T04:32:43;10.10;99.90
11055;DHT22;5580;50.106;8.702;2023-12-29T04:35:09;10.10;99.90
11055;DHT22;5580;50.106;8.702;2023-12-29T04:37:38;10.10;99.90
11055;DHT22;5580;50.106;8.702;2023-12-29T04:40:04;10.10;99.90
11055;DHT22;5580;50.106;8.702;2023-12-29T04:42:30;10.10;99.90
11055;DHT22;5580;50.106;8.702;2023-12-29T04:44:55;10.00;99.90
11055;DHT22;5580;50.106;8.702;2023-12-29T04:47:21;10.00;99.90
11055;DHT22;5580;50.106;8.702;2023-12-29T04:49:46;10.00;99.90
11055;DHT22;5580;50.106;8.702;2023-12-29T04:52:12;10.00;99.90
11055;DHT22;5580;50.106;8.702;2023-12-29T04:54:37;10.10;99.90
11055;DHT22;5580;50.106;8.702;2023-12-29T04:57:03;10.00;99.90
11055;DHT22;5580;50.106;8.702;2023-12-29T04:59:29;10.00;99.90
11055;DHT22;5580;50.106;8.702;2023-12-29T05:01:54;10.00;99.90
11055;DHT22;5580;50.106;8.702;2023-12-29T05:04:20;10.10;99.90
11055;DHT22;5580;50.106;8.702;2023-12-29T05:06:45;10.00;99.90
11055;DHT22;5580;50.106;8.702;2023-12-29T05:09:11;10.10;99.90
11055;DHT22;5580;50.106;8.702;2023-12-29T05:11:36;10.10;99.90
11055;DHT22;5580;50.106;8.702;2023-12-29T05:14:02;10.10;99.90
11055;DHT22;5580;50.106;8.702;2023-12-29T05:16:27;10.10;99.90
11055;DHT22;5580;50.106;8.702;2023-12-29T05:18:53;10.10;99.90
11055;DHT22;5580;50.106;8.702;2023-12-29T05:21:19;10.10;99.90
11055;DHT22;5580;50.106;8.702;2023-12-29T05:23:45;10.00;99.90
11055;DHT22;5580;50.106;8.702;2023-12-29T05:26:11;10.00;99.90
11055;DHT22;5580;50.106;8.702;2023-12-29T05:28:37;10.00;99.90
11055;DHT22;5580;50.106;8.702;2023-12-29T05:31:02;10.10;99.90
11055;DHT22;5580;50.106;8.702;2023-12-29T05:33:31;10.10;99.90
11055;DHT22;5580;50.106;8.702;2023-12-29T05:35:57;10.10;99.90
11055;DHT22;5580;50.106;8.702;2023-12-29T05:38:23;10.00;99.90
11055;DHT22;5580;50.106;8.702;2023-12-29T05:40:48;10.00;99.90
11055;DHT22;5580;50.106;8.702;2023-12-29T05:43:15;10.10;99.90
11055;DHT22;5580;50.106;8.702;2023-12-29T05:45:41;10.10;99.90
11055;DHT22;5580;50.106;8.702;2023-12-29T05:48:07;10.10;99.90
11055;DHT22;5580;50.106;8.702;2023-12-29T05:50:32;10.10;99.90
11055;DHT22;5580;50.106;8.702;2023-12-29T05:52:58;10.10;99.90
11055;DHT22;5580;50.106;8.702;2023-12-29T05:55:24;10.10;99.90
11055;DHT22;5580;50.106;8.702;2023-12-29T05:57:49;10.00;99.90
11055;DHT22;5580;50.106;8.702;2023-12-29T06:00:15;10.00;99.90
11055;DHT22;5580;50.106;8.702;2023-12-29T06:02:41;10.00;99.90
11055;DHT22;5580;50.106;8.702;2023-12-29T06:05:09;10.00;99.90
11055;DHT22;5580;50.106;8.702;2023-12-29T06:07:35;10.00;99.90
11055;DHT22;5580;50.106;8.702;2023-12-29T06:10:01;10.00;99.90
11055;DHT22;5580;50.106;8.702;2023-12-29T06:12:26;10.00;99.90
11055;DHT22;5580;50.106;8.702;2023-12-29T06:14:52;10.00;99.90
11055;DHT22;5580;50.106;8.702;2023-12-29T06:17:18;10.00;99.90
11055;DHT22;5580;50.106;8.702;2023-12-29T06:19:43;10.00;99.90
11055;DHT22;5580;50.106;8.702;2023-12-29T06:22:09;10.00;99.90
11055;DHT22;5580;50.106;8.702;2023-12-29T06:24:37;10.00;99.90
11055;DHT22;5580;50.106;8.702;2023-12-29T06:27:03;10.10;99.90
11055;DHT22;5580;50.106;8.702;2023-12-29T06:29:29;10.10;99.90
11055;DHT22;5580;50.106;8.702;2023-12-29T06:31:54;10.20;99.90
11055;DHT22;5580;50.106;8.702;2023-12-29T06:34:20;10.20;99.90
11055;DHT22;5580;50.106;8.702;2023-12-29T06:36:46;10.20;99.90
11055;DHT22;5580;50.106;8.702;2023-12-29T06:39:11;10.20;99.90
11055;DHT22;5580;50.106;8.702;2023-12-29T06:41:37;10.20;99.90
11055;DHT22;5580;50.106;8.702;2023-12-29T06:44:02;10.20;99.90
11055;DHT22;5580;50.106;8.702;2023-12-29T06:46:28;10.20;99.90
11055;DHT22;5580;50.106;8.702;2023-12-29T06:48:54;10.30;99.90
11055;DHT22;5580;50.106;8.702;2023-12-29T06:51:20;10.30;99.90
11055;DHT22;5580;50.106;8.702;2023-12-29T06:53:47;10.30;99.90
11055;DHT22;5580;50.106;8.702;2023-12-29T06:56:14;10.30;99.90
11055;DHT22;5580;50.106;8.702;2023-12-29T06:58:40;10.30;99.90
11055;DHT22;5580;50.106;8.702;2023-12-29T07:01:06;10.40;99.90
11055;DHT22;5580;50.106;8.702;2023-12-29T07:03:31;10.40;99.90
11055;DHT22;5580;50.106;8.702;2023-12-29T07:05:57;10.40;99.90
11055;DHT22;5580;50.106;8.702;2023-12-29T07:08:26;10.40;99.90
11055;DHT22;5580;50.106;8.702;2023-12-29T07:10:51;10.40;99.90
11055;DHT22;5580;50.106;8.702;2023-12-29T07:13:17;10.40;99.90
11055;DHT22;5580;50.106;8.702;2023-12-29T07:15:43;10.50;99.90
11055;DHT22;5580;50.106;8.702;2023-12-29T07:18:08;10.40;99.90
11055;DHT22;5580;50.106;8.702;2023-12-29T07:20:34;10.50;99.90
11055;DHT22;5580;50.106;8.702;2023-12-29T07:23:00;10.50;99.90
11055;DHT22;5580;50.106;8.702;2023-12-29T07:25:26;10.50;99.90
11055;DHT22;5580;50.106;8.702;2023-12-29T07:27:52;10.60;99.90
11055;DHT22;5580;50.106;8.702;2023-12-29T07:30:18;10.60;99.90
11055;DHT22;5580;50.106;8.702;2023-12-29T07:32:44;10.60;99.90
11055;DHT22;5580;50.106;8.702;2023-12-29T07:35:10;10.60;99.90
11055;DHT22;5580;50.106;8.702;2023-12-29T07:37:35;10.60;99.90
11055;DHT22;5580;50.106;8.702;2023-12-29T07:40:01;10.60;99.90
11055;DHT22;5580;50.106;8.702;2023-12-29T07:42:26;10.60;99.90
11055;DHT22;5580;50.106;8.702;2023-12-29T07:44:52;10.60;99.90
11055;DHT22;5580;50.106;8.702;2023-12-29T07:47:20;10.70;99.90
11055;DHT22;5580;50.106;8.702;2023-12-29T07:49:46;10.70;99.90
11055;DHT22;5580;50.106;8.702;2023-12-29T07:52:11;10.70;99.90
11055;DHT22;5580;50.106;8.702;2023-12-29T07:54:37;10.70;99.90
11055;DHT22;5580;50.106;8.702;2023-12-29T07:57:03;10.70;99.90
11055;DHT22;5580;50.106;8.702;2023-12-29T07:59:28;10.70;99.90
11055;DHT22;5580;50.106;8.702;2023-12-29T08:01:54;10.70;99.90
11055;DHT22;5580;50.106;8.702;2023-12-29T08:04:19;10.70;99.90
11055;DHT22;5580;50.106;8.702;2023-12-29T08:06:45;10.70;99.90
11055;DHT22;5580;50.106;8.702;2023-12-29T08:09:10;10.70;99.90
11055;DHT22;5580;50.106;8.702;2023-12-29T08:11:36;10.80;99.90
11055;DHT22;5580;50.106;8.702;2023-12-29T08:14:01;10.80;99.90
11055;DHT22;5580;50.106;8.702;2023-12-29T08:16:27;10.80;99.90
11055;DHT22;5580;50.106;8.702;2023-12-29T08:18:52;10.80;99.90
11055;DHT22;5580;50.106;8.702;2023-12-29T08:21:21;10.80;99.90
11055;DHT22;5580;50.106;8.702;2023-12-29T08:23:48;10.80;99.90
11055;DHT22;5580;50.106;8.702;2023-12-29T08:26:14;10.80;99.90
11055;DHT22;5580;50.106;8.702;2023-12-29T08:28:40;10.80;99.90
11055;DHT22;5580;50.106;8.702;2023-12-29T08:31:07;10.90;99.90
11055;DHT22;5580;50.106;8.702;2023-12-29T08:33:32;10.90;99.90
11055;DHT22;5580;50.106;8.702;2023-12-29T08:35:58;10.90;99.90
11055;DHT22;5580;50.106;8.702;2023-12-29T08:38:26;10.90;99.90
11055;DHT22;5580;50.106;8.702;2023-12-29T08:40:52;10.90;99.90
11055;DHT22;5580;50.106;8.702;2023-12-29T08:43:18;10.90;99.90
11055;DHT22;5580;50.106;8.702;2023-12-29T08:45:47;10.90;99.90
11055;DHT22;5580;50.106;8.702;2023-12-29T08:48:13;10.90;99.90
11055;DHT22;5580;50.106;8.702;2023-12-29T08:50:38;11.00;99.90
11055;DHT22;5580;50.106;8.702;2023-12-29T08:53:04;11.00;99.90
11055;DHT22;5580;50.106;8.702;2023-12-29T08:55:29;11.00;99.90
11055;DHT22;5580;50.106;8.702;2023-12-29T08:57:57;11.00;99.90
11055;DHT22;5580;50.106;8.702;2023-12-29T09:00:22;11.00;99.90
11055;DHT22;5580;50.106;8.702;2023-12-29T09:02:48;11.00;99.90
11055;DHT22;5580;50.106;8.702;2023-12-29T09:05:14;11.00;99.90
11055;DHT22;5580;50.106;8.702;2023-12-29T09:07:39;11.00;99.90
11055;DHT22;5580;50.106;8.702;2023-12-29T09:10:05;11.00;99.90
11055;DHT22;5580;50.106;8.702;2023-12-29T09:12:36;11.00;99.90
11055;DHT22;5580;50.106;8.702;2023-12-29T09:15:02;11.00;99.90
11055;DHT22;5580;50.106;8.702;2023-12-29T09:17:28;11.00;99.90
11055;DHT22;5580;50.106;8.702;2023-12-29T09:19:53;11.10;99.90
11055;DHT22;5580;50.106;8.702;2023-12-29T09:22:20;11.10;99.90
11055;DHT22;5580;50.106;8.702;2023-12-29T09:24:45;11.10;99.90
11055;DHT22;5580;50.106;8.702;2023-12-29T09:27:11;11.10;99.90
11055;DHT22;5580;50.106;8.702;2023-12-29T09:29:37;11.10;99.90
11055;DHT22;5580;50.106;8.702;2023-12-29T09:32:03;11.00;99.90
11055;DHT22;5580;50.106;8.702;2023-12-29T09:34:28;11.10;99.90
11055;DHT22;5580;50.106;8.702;2023-12-29T09:36:54;11.10;99.90
11055;DHT22;5580;50.106;8.702;2023-12-29T09:39:20;11.10;99.90
11055;DHT22;5580;50.106;8.702;2023-12-29T09:41:51;11.10;99.90
11055;DHT22;5580;50.106;8.702;2023-12-29T09:44:20;11.20;99.90
11055;DHT22;5580;50.106;8.702;2023-12-29T09:46:50;11.20;99.90
11055;DHT22;5580;50.106;8.702;2023-12-29T09:49:18;11.20;99.90
11055;DHT22;5580;50.106;8.702;2023-12-29T09:51:45;11.20;99.90
11055;DHT22;5580;50.106;8.702;2023-12-29T09:54:10;11.10;99.90
11055;DHT22;5580;50.106;8.702;2023-12-29T09:56:37;11.20;99.90
11055;DHT22;5580;50.106;8.702;2023-12-29T09:59:03;11.20;99.90
11055;DHT22;5580;50.106;8.702;2023-12-29T10:01:29;11.20;99.90
11055;DHT22;5580;50.106;8.702;2023-12-29T10:03:56;11.30;99.90
11055;DHT22;5580;50.106;8.702;2023-12-29T10:06:24;11.30;99.90
11055;DHT22;5580;50.106;8.702;2023-12-29T10:08:50;11.30;99.90
11055;DHT22;5580;50.106;8.702;2023-12-29T10:11:18;11.30;99.90
11055;DHT22;5580;50.106;8.702;2023-12-29T10:13:47;11.30;99.90
11055;DHT22;5580;50.106;8.702;2023-12-29T10:16:35;11.20;99.90
11055;DHT22;5580;50.106;8.702;2023-12-29T10:21:57;11.30;99.90
11055;DHT22;5580;50.106;8.702;2023-12-29T10:24:28;11.30;99.90
11055;DHT22;5580;50.106;8.702;2023-12-29T10:26:55;11.30;99.90
11055;DHT22;5580;50.106;8.702;2023-12-29T10:29:21;11.30;99.90
11055;DHT22;5580;50.106;8.702;2023-12-29T10:31:47;11.30;99.90
11055;DHT22;5580;50.106;8.702;2023-12-29T10:34:20;11.30;99.90
11055;DHT22;5580;50.106;8.702;2023-12-29T10:36:49;11.30;99.90
11055;DHT22;5580;50.106;8.702;2023-12-29T10:39:15;11.30;99.90
11055;DHT22;5580;50.106;8.702;2023-12-29T10:41:41;11.30;99.90
11055;DHT22;5580;50.106;8.702;2023-12-29T10:44:08;11.30;99.90
11055;DHT22;5580;50.106;8.702;2023-12-29T10:46:34;11.30;99.90
11055;DHT22;5580;50.106;8.702;2023-12-29T10:49:13;11.30;99.90
11055;DHT22;5580;50.106;8.702;2023-12-29T10:51:39;11.40;99.90
11055;DHT22;5580;50.106;8.702;2023-12-29T10:54:06;11.40;99.90
11055;DHT22;5580;50.106;8.702;2023-12-29T10:56:32;11.40;99.90
11055;DHT22;5580;50.106;8.702;2023-12-29T10:59:00;11.40;99.90
11055;DHT22;5580;50.106;8.702;2023-12-29T11:01:26;11.40;99.90
11055;DHT22;5580;50.106;8.702;2023-12-29T11:03:59;11.40;99.90
11055;DHT22;5580;50.106;8.702;2023-12-29T11:06:26;11.40;99.90
11055;DHT22;5580;50.106;8.702;2023-12-29T11:08:53;11.40;99.90
11055;DHT22;5580;50.106;8.702;2023-12-29T11:11:19;11.40;99.90
11055;DHT22;5580;50.106;8.702;2023-12-29T11:13:46;11.40;99.90
11055;DHT22;5580;50.106;8.702;2023-12-29T11:16:13;11.40;99.90
11055;DHT22;5580;50.106;8.702;2023-12-29T11:18:41;11.40;99.90
11055;DHT22;5580;50.106;8.702;2023-12-29T11:21:08;11.40;99.90
11055;DHT22;5580;50.106;8.702;2023-12-29T11:23:34;11.40;99.90
11055;DHT22;5580;50.106;8.702;2023-12-29T11:26:00;11.40;99.90
11055;DHT22;5580;50.106;8.702;2023-12-29T11:28:26;11.40;99.90
11055;DHT22;5580;50.106;8.702;2023-12-29T11:30:52;11.40;99.90
11055;DHT22;5580;50.106;8.702;2023-12-29T11:33:26;11.40;99.90
11055;DHT22;5580;50.106;8.702;2023-12-29T11:36:01;11.50;99.90
11055;DHT22;5580;50.106;8.702;2023-12-29T11:43:39;11.50;99.90
11055;DHT22;5580;50.106;8.702;2023-12-29T11:46:04;11.50;99.90
11055;DHT22;5580;50.106;8.702;2023-12-29T11:51:33;11.50;99.90
11055;DHT22;5580;50.106;8.702;2023-12-29T11:54:03;11.50;99.90
11055;DHT22;5580;50.106;8.702;2023-12-29T11:56:37;11.50;99.90
11055;DHT22;5580;50.106;8.702;2023-12-29T12:01:39;11.50;99.90
11055;DHT22;5580;50.106;8.702;2023-12-29T12:04:41;11.50;99.90
11055;DHT22;5580;50.106;8.702;2023-12-29T12:07:17;11.50;99.90
11055;DHT22;5580;50.106;8.702;2023-12-29T12:12:46;11.60;99.90
11055;DHT22;5580;50.106;8.702;2023-12-29T12:17:59;11.60;99.90
11055;DHT22;5580;50.106;8.702;2023-12-29T12:20:25;11.50;99.90
11055;DHT22;5580;50.106;8.702;2023-12-29T12:23:01;11.60;99.90
11055;DHT22;5580;50.106;8.702;2023-12-29T12:25:27;11.60;99.90
11055;DHT22;5580;50.106;8.702;2023-12-29T12:27:57;11.50;99.90
11055;DHT22;5580;50.106;8.702;2023-12-29T12:30:22;11.50;99.90
11055;DHT22;5580;50.106;8.702;2023-12-29T12:32:58;11.50;99.90
11055;DHT22;5580;50.106;8.702;2023-12-29T12:35:24;11.60;99.90
11055;DHT22;5580;50.106;8.702;2023-12-29T12:38:10;11.60;99.90
11055;DHT22;5580;50.106;8.702;2023-12-29T12:40:36;11.60;99.90
11055;DHT22;5580;50.106;8.702;2023-12-29T12:43:02;11.60;99.90
11055;DHT22;5580;50.106;8.702;2023-12-29T12:45:29;11.60;99.90
11055;DHT22;5580;50.106;8.702;2023-12-29T12:51:21;11.70;99.90
11055;DHT22;5580;50.106;8.702;2023-12-29T12:53:47;11.60;99.90
11055;DHT22;5580;50.106;8.702;2023-12-29T12:56:15;11.70;99.90
11055;DHT22;5580;50.106;8.702;2023-12-29T12:58:42;11.70;99.90
11055;DHT22;5580;50.106;8.702;2023-12-29T13:01:08;11.70;99.90
11055;DHT22;5580;50.106;8.702;2023-12-29T13:03:34;11.70;99.90
11055;DHT22;5580;50.106;8.702;2023-12-29T13:06:02;11.80;99.90
11055;DHT22;5580;50.106;8.702;2023-12-29T13:08:30;11.80;99.90
11055;DHT22;5580;50.106;8.702;2023-12-29T13:10:56;11.70;99.90
11055;DHT22;5580;50.106;8.702;2023-12-29T13:13:21;11.80;99.90
11055;DHT22;5580;50.106;8.702;2023-12-29T13:15:48;11.80;99.90
11055;DHT22;5580;50.106;8.702;2023-12-29T13:18:15;11.80;99.90
11055;DHT22;5580;50.106;8.702;2023-12-29T13:20:47;11.80;99.90
11055;DHT22;5580;50.106;8.702;2023-12-29T13:23:13;11.80;99.90
11055;DHT22;5580;50.106;8.702;2023-12-29T13:25:40;11.80;99.90
11055;DHT22;5580;50.106;8.702;2023-12-29T13:28:08;11.80;99.90
11055;DHT22;5580;50.106;8.702;2023-12-29T13:30:35;11.90;99.90
11055;DHT22;5580;50.106;8.702;2023-12-29T13:33:15;11.90;99.90
11055;DHT22;5580;50.106;8.702;2023-12-29T13:36:08;11.90;99.90
11055;DHT22;5580;50.106;8.702;2023-12-29T13:38:42;11.90;99.90
11055;DHT22;5580;50.106;8.702;2023-12-29T13:41:11;11.90;99.90
11055;DHT22;5580;50.106;8.702;2023-12-29T13:43:40;11.90;99.90
11055;DHT22;5580;50.106;8.702;2023-12-29T13:46:09;12.00;99.90
11055;DHT22;5580;50.106;8.702;2023-12-29T13:48:35;12.00;99.90
11055;DHT22;5580;50.106;8.702;2023-12-29T13:51:01;11.90;99.90
11055;DHT22;5580;50.106;8.702;2023-12-29T13:53:26;11.90;99.90
11055;DHT22;5580;50.106;8.702;2023-12-29T13:55:52;11.90;99.90
11055;DHT22;5580;50.106;8.702;2023-12-29T13:58:17;11.90;99.90
11055;DHT22;5580;50.106;8.702;2023-12-29T14:00:46;11.90;99.90
11055;DHT22;5580;50.106;8.702;2023-12-29T14:03:22;11.90;99.90
11055;DHT22;5580;50.106;8.702;2023-12-29T14:05:55;12.00;99.90
11055;DHT22;5580;50.106;8.702;2023-12-29T14:08:48;12.00;99.90
11055;DHT22;5580;50.106;8.702;2023-12-29T14:11:13;12.00;99.90
11055;DHT22;5580;50.106;8.702;2023-12-29T14:13:43;11.90;99.90
11055;DHT22;5580;50.106;8.702;2023-12-29T14:16:10;12.00;99.90
11055;DHT22;5580;50.106;8.702;2023-12-29T14:18:48;12.00;99.90
11055;DHT22;5580;50.106;8.702;2023-12-29T14:26:31;11.90;99.90
11055;DHT22;5580;50.106;8.702;2023-12-29T14:29:15;11.90;99.90
11055;DHT22;5580;50.106;8.702;2023-12-29T14:31:42;11.90;99.90
11055;DHT22;5580;50.106;8.702;2023-12-29T14:34:09;11.90;99.90
11055;DHT22;5580;50.106;8.702;2023-12-29T14:36:36;11.90;99.90
11055;DHT22;5580;50.106;8.702;2023-12-29T14:39:03;11.90;99.90
11055;DHT22;5580;50.106;8.702;2023-12-29T14:41:30;11.90;99.90
11055;DHT22;5580;50.106;8.702;2023-12-29T14:43:56;11.80;99.90
11055;DHT22;5580;50.106;8.702;2023-12-29T14:46:22;11.80;99.90
11055;DHT22;5580;50.106;8.702;2023-12-29T14:48:47;11.80;99.90
11055;DHT22;5580;50.106;8.702;2023-12-29T14:51:14;11.80;99.90
11055;DHT22;5580;50.106;8.702;2023-12-29T14:53:39;11.80;99.90
11055;DHT22;5580;50.106;8.702;2023-12-29T14:56:05;11.80;99.90
11055;DHT22;5580;50.106;8.702;2023-12-29T14:58:31;11.80;99.90
11055;DHT22;5580;50.106;8.702;2023-12-29T15:00:58;11.80;99.90
11055;DHT22;5580;50.106;8.702;2023-12-29T15:03:23;11.80;99.90
11055;DHT22;5580;50.106;8.702;2023-12-29T15:05:49;11.70;99.90
11055;DHT22;5580;50.106;8.702;2023-12-29T15:08:15;11.70;99.90
11055;DHT22;5580;50.106;8.702;2023-12-29T15:10:43;11.70;99.90
11055;DHT22;5580;50.106;8.702;2023-12-29T15:13:10;11.70;99.90
11055;DHT22;5580;50.106;8.702;2023-12-29T15:15:35;11.70;99.90
11055;DHT22;5580;50.106;8.702;2023-12-29T15:18:01;11.70;99.90
11055;DHT22;5580;50.106;8.702;2023-12-29T15:20:28;11.70;99.90
11055;DHT22;5580;50.106;8.702;2023-12-29T15:22:53;11.70;99.90
11055;DHT22;5580;50.106;8.702;2023-12-29T15:25:21;11.70;99.90
11055;DHT22;5580;50.106;8.702;2023-12-29T15:27:48;11.70;99.90
11055;DHT22;5580;50.106;8.702;2023-12-29T15:30:14;11.70;99.90
11055;DHT22;5580;50.106;8.702;2023-12-29T15:32:40;11.70;99.90
11055;DHT22;5580;50.106;8.702;2023-12-29T15:35:06;11.70;99.90
11055;DHT22;5580;50.106;8.702;2023-12-29T15:37:32;11.70;99.90
11055;DHT22;5580;50.106;8.702;2023-12-29T15:39:57;11.70;99.90
11055;DHT22;5580;50.106;8.702;2023-12-29T15:42:25;11.70;99.90
11055;DHT22;5580;50.106;8.702;2023-12-29T15:44:51;11.70;99.90
11055;DHT22;5580;50.106;8.702;2023-12-29T15:47:17;11.70;99.90
11055;DHT22;5580;50.106;8.702;2023-12-29T15:49:42;11.70;99.90
11055;DHT22;5580;50.106;8.702;2023-12-29T15:52:08;11.60;99.90
11055;DHT22;5580;50.106;8.702;2023-12-29T15:54:33;11.60;99.90
11055;DHT22;5580;50.106;8.702;2023-12-29T15:56:59;11.60;99.90
11055;DHT22;5580;50.106;8.702;2023-12-29T15:59:25;11.60;99.90
11055;DHT22;5580;50.106;8.702;2023-12-29T16:01:51;11.60;99.90
11055;DHT22;5580;50.106;8.702;2023-12-29T16:04:16;11.60;99.90
11055;DHT22;5580;50.106;8.702;2023-12-29T16:06:42;11.60;99.90
11055;DHT22;5580;50.106;8.702;2023-12-29T16:09:08;11.60;99.90
11055;DHT22;5580;50.106;8.702;2023-12-29T16:11:33;11.60;99.90
11055;DHT22;5580;50.106;8.702;2023-12-29T16:14:00;11.60;99.90